createdAt,value
2022-12-14T00:00:44.416Z,5.1
2022-12-14T00:08:16.732Z,5.1
2022-12-14T00:15:49.111Z,5.1
2022-12-14T00:23:21.486Z,5.1
2022-12-14T00:30:58.104Z,5.5
2022-12-14T00:38:30.888Z,5.5
2022-12-14T00:46:03.322Z,5.5
2022-12-14T00:53:35.739Z,5.5
2022-12-14T01:01:08.155Z,5.5
2022-12-14T01:08:40.501Z,5.5
2022-12-14T01:16:12.850Z,5.5
2022-12-14T01:23:45.213Z,5.5
2022-12-14T01:31:17.550Z,5.8
2022-12-14T01:38:49.905Z,5.8
2022-12-14T01:46:22.270Z,5.8
2022-12-14T01:53:54.647Z,5.8
2022-12-14T02:01:27.030Z,5.8
2022-12-14T02:08:59.421Z,5.8
2022-12-14T02:16:31.756Z,5.8
2022-12-14T02:24:04.085Z,5.8
2022-12-14T02:31:36.428Z,5.5
2022-12-14T02:39:08.815Z,5.5
2022-12-14T02:46:43.178Z,5.5
2022-12-14T02:54:17.456Z,5.5
2022-12-14T03:01:49.854Z,5.5
2022-12-14T03:09:22.323Z,5.5
2022-12-14T03:16:54.764Z,5.5
2022-12-14T03:24:27.088Z,5.5
2022-12-14T03:31:59.492Z,5.8
2022-12-14T03:39:31.853Z,5.8
2022-12-14T03:47:04.179Z,5.8
2022-12-14T03:54:36.567Z,5.8
2022-12-14T04:02:09.052Z,5.8
2022-12-14T04:09:41.511Z,5.8
2022-12-14T04:17:13.862Z,5.8
2022-12-14T04:24:46.251Z,5.8
2022-12-14T04:32:18.649Z,6.5
2022-12-14T04:39:50.987Z,6.5
2022-12-14T04:47:23.368Z,6.5
2022-12-14T04:54:55.654Z,6.5
2022-12-14T05:02:28.119Z,6.5
2022-12-14T05:10:00.566Z,6.5
2022-12-14T05:17:10.398Z,6.5
2022-12-14T05:17:57.804Z,6.5
2022-12-14T05:18:45.212Z,6.5
2022-12-14T05:19:32.567Z,6.5
2022-12-14T05:20:20.104Z,6.5
2022-12-14T05:21:07.459Z,6.5
2022-12-14T05:21:54.849Z,6.9
2022-12-14T05:22:42.190Z,6.9
2022-12-14T05:23:30.074Z,6.9
2022-12-14T05:24:17.674Z,6.9
2022-12-14T05:25:05.024Z,6.9
2022-12-14T05:25:52.339Z,6.9
2022-12-14T05:26:39.670Z,6.9
2022-12-14T05:27:26.996Z,6.9
2022-12-14T05:28:14.285Z,6.9
2022-12-14T05:29:01.594Z,6.9
2022-12-14T05:29:48.937Z,6.9
2022-12-14T05:30:36.237Z,6.9
2022-12-14T05:31:23.820Z,6.9
2022-12-14T05:32:11.152Z,6.9
2022-12-14T05:32:58.461Z,6.9
2022-12-14T05:33:45.762Z,6.9
2022-12-14T05:34:33.049Z,6.9
2022-12-14T05:35:20.334Z,6.9
2022-12-14T05:36:07.580Z,6.9
2022-12-14T05:36:54.944Z,6.9
2022-12-14T05:37:42.270Z,6.9
2022-12-14T05:38:29.597Z,6.9
2022-12-14T05:39:16.929Z,6.9
2022-12-14T05:40:04.231Z,6.9
2022-12-14T05:40:51.564Z,6.9
2022-12-14T05:41:38.897Z,6.9
2022-12-14T05:42:26.224Z,6.9
2022-12-14T05:43:13.543Z,6.9
2022-12-14T05:44:00.986Z,6.9
2022-12-14T05:44:48.266Z,6.9
2022-12-14T05:45:35.541Z,6.9
2022-12-14T05:46:22.951Z,6.9
2022-12-14T05:47:10.303Z,6.9
2022-12-14T05:47:57.623Z,6.9
2022-12-14T05:48:48.994Z,6.9
2022-12-14T05:49:36.745Z,6.9
2022-12-14T05:50:24.182Z,6.9
2022-12-14T05:51:11.492Z,6.9
2022-12-14T05:51:58.836Z,6.9
2022-12-14T05:52:46.210Z,6.9
2022-12-14T05:53:33.623Z,6.9
2022-12-14T05:54:20.913Z,6.9
2022-12-14T05:55:08.381Z,6.9
2022-12-14T05:55:55.671Z,6.9
2022-12-14T05:56:42.963Z,6.9
2022-12-14T05:57:30.764Z,6.9
2022-12-14T05:58:19.026Z,6.9
2022-12-14T05:59:06.633Z,6.9
2022-12-14T05:59:53.988Z,6.9
2022-12-14T06:00:41.312Z,6.9
2022-12-14T06:01:28.654Z,6.9
2022-12-14T06:02:16.059Z,6.9
2022-12-14T06:03:03.485Z,6.9
2022-12-14T06:03:50.863Z,6.9
2022-12-14T06:04:38.282Z,6.9
2022-12-14T06:05:25.633Z,6.9
2022-12-14T06:06:12.999Z,6.9
2022-12-14T06:07:00.375Z,6.9
2022-12-14T06:07:47.690Z,6.9
2022-12-14T06:08:36.614Z,6.9
2022-12-14T06:09:23.975Z,6.9
2022-12-14T06:10:11.388Z,6.9
2022-12-14T06:10:58.684Z,6.9
2022-12-14T06:11:46.496Z,6.9
2022-12-14T06:12:34.021Z,6.9
2022-12-14T06:13:21.333Z,6.9
2022-12-14T06:14:08.634Z,6.9
2022-12-14T06:14:55.933Z,6.9
2022-12-14T06:15:43.236Z,6.9
2022-12-14T06:16:30.618Z,6.9
2022-12-14T06:17:17.955Z,6.9
2022-12-14T06:18:05.260Z,6.9
2022-12-14T06:18:52.542Z,6.9
2022-12-14T06:19:39.830Z,6.9
2022-12-14T06:20:27.151Z,6.9
2022-12-14T06:21:14.441Z,6.9
2022-12-14T06:22:01.772Z,10.3
2022-12-14T06:22:49.097Z,10.3
2022-12-14T06:23:36.455Z,10.3
2022-12-14T06:24:23.810Z,10.3
2022-12-14T06:25:11.161Z,10.3
2022-12-14T06:25:58.496Z,10.3
2022-12-14T06:26:45.801Z,10.3
2022-12-14T06:27:33.184Z,10.3
2022-12-14T06:28:20.482Z,10.3
2022-12-14T06:29:07.798Z,10.3
2022-12-14T06:29:55.093Z,10.3
2022-12-14T06:30:42.441Z,10.3
2022-12-14T06:31:29.854Z,10.3
2022-12-14T06:32:17.737Z,10.3
2022-12-14T06:33:05.067Z,10.3
2022-12-14T06:33:52.359Z,10.3
2022-12-14T06:34:42.272Z,10.3
2022-12-14T06:35:29.861Z,10.3
2022-12-14T06:36:17.308Z,10.3
2022-12-14T06:37:04.624Z,10.3
2022-12-14T06:37:51.928Z,10.3
2022-12-14T06:38:40.835Z,10.3
2022-12-14T06:39:28.175Z,10.3
2022-12-14T06:40:15.467Z,10.3
2022-12-14T06:41:02.818Z,10.3
2022-12-14T06:41:50.214Z,10.3
2022-12-14T06:42:37.512Z,10.3
2022-12-14T06:43:25.042Z,10.3
2022-12-14T06:44:12.535Z,10.3
2022-12-14T06:44:59.971Z,10.3
2022-12-14T06:45:47.304Z,10.3
2022-12-14T06:46:34.685Z,10.3
2022-12-14T06:47:22.072Z,10.3
2022-12-14T06:48:09.401Z,10.3
2022-12-14T06:48:56.740Z,10.3
2022-12-14T06:49:44.070Z,10.3
2022-12-14T06:50:31.367Z,10.3
2022-12-14T06:51:18.695Z,10.3
2022-12-14T06:52:06.026Z,10.3
2022-12-14T06:52:53.359Z,10.3
2022-12-14T06:53:40.688Z,10.3
2022-12-14T06:54:27.992Z,10.3
2022-12-14T06:55:15.323Z,10.3
2022-12-14T06:56:02.631Z,10.3
2022-12-14T06:56:49.971Z,10.3
2022-12-14T06:57:37.314Z,10.3
2022-12-14T06:58:29.429Z,10.3
2022-12-14T06:59:19.623Z,10.3
2022-12-14T07:00:07.074Z,10.3
2022-12-14T07:00:54.428Z,10.3
2022-12-14T07:01:41.842Z,10.3
2022-12-14T07:02:29.350Z,10.3
2022-12-14T07:03:16.909Z,10.3
2022-12-14T07:04:04.220Z,10.3
2022-12-14T07:04:51.648Z,10.3
2022-12-14T07:05:41.012Z,10.3
2022-12-14T07:06:31.631Z,10.3
2022-12-14T07:07:18.960Z,10.3
2022-12-14T07:08:06.250Z,10.3
2022-12-14T07:08:53.561Z,10.3
2022-12-14T07:09:41.003Z,10.3
2022-12-14T07:10:28.315Z,10.3
2022-12-14T07:11:15.645Z,10.3
2022-12-14T07:12:03.039Z,10.3
2022-12-14T07:12:50.398Z,10.3
2022-12-14T07:13:37.693Z,10.3
2022-12-14T07:14:25.155Z,10.3
2022-12-14T07:15:12.456Z,10.3
2022-12-14T07:15:59.836Z,10.3
2022-12-14T07:16:48.504Z,10.3
2022-12-14T07:17:36.155Z,10.3
2022-12-14T07:18:23.491Z,10.3
2022-12-14T07:19:10.773Z,10.3
2022-12-14T07:19:58.115Z,10.3
2022-12-14T07:20:45.461Z,10.3
2022-12-14T07:21:32.771Z,10.7
2022-12-14T07:22:20.356Z,10.7
2022-12-14T07:23:07.677Z,10.7
2022-12-14T07:23:54.983Z,10.7
2022-12-14T07:24:42.267Z,10.7
2022-12-14T07:25:29.565Z,10.7
2022-12-14T07:26:16.867Z,10.7
2022-12-14T07:27:04.187Z,10.7
2022-12-14T07:27:51.512Z,10.7
2022-12-14T07:28:38.805Z,10.7
2022-12-14T07:29:31.092Z,10.7
2022-12-14T07:30:21.521Z,10.7
2022-12-14T07:31:09.046Z,10.7
2022-12-14T07:31:56.361Z,10.7
2022-12-14T07:32:43.674Z,10.7
2022-12-14T07:33:31.336Z,10.7
2022-12-14T07:34:18.871Z,10.7
2022-12-14T07:35:06.250Z,10.7
2022-12-14T07:35:53.555Z,10.7
2022-12-14T07:36:40.855Z,10.7
2022-12-14T07:37:28.167Z,10.7
2022-12-14T07:38:15.487Z,10.7
2022-12-14T07:39:02.862Z,10.7
2022-12-14T07:39:50.212Z,10.7
2022-12-14T07:40:37.538Z,10.7
2022-12-14T07:41:24.841Z,10.7
2022-12-14T07:42:12.196Z,10.7
2022-12-14T07:42:59.503Z,10.7
2022-12-14T07:43:46.798Z,10.7
2022-12-14T07:44:37.225Z,10.7
2022-12-14T07:45:24.668Z,10.7
2022-12-14T07:46:12.071Z,10.7
2022-12-14T07:46:59.418Z,10.7
2022-12-14T07:47:46.759Z,10.7
2022-12-14T07:48:34.071Z,10.7
2022-12-14T07:49:21.405Z,10.7
2022-12-14T07:50:08.795Z,10.7
2022-12-14T07:50:56.134Z,10.7
2022-12-14T07:51:43.452Z,10.7
2022-12-14T07:52:37.161Z,10.7
2022-12-14T07:53:24.958Z,10.7
2022-12-14T07:54:12.407Z,10.7
2022-12-14T07:54:59.707Z,10.7
2022-12-14T07:55:47.039Z,10.7
2022-12-14T07:56:34.488Z,10.7
2022-12-14T07:57:21.826Z,10.7
2022-12-14T07:58:09.181Z,10.7
2022-12-14T07:58:56.597Z,10.7
2022-12-14T07:59:43.910Z,10.7
2022-12-14T08:00:31.213Z,10.7
2022-12-14T08:01:18.793Z,10.7
2022-12-14T08:02:06.289Z,10.7
2022-12-14T08:02:53.790Z,10.7
2022-12-14T08:03:41.174Z,10.7
2022-12-14T08:04:28.576Z,10.7
2022-12-14T08:05:16.190Z,10.7
2022-12-14T08:06:03.522Z,10.7
2022-12-14T08:06:50.981Z,10.7
2022-12-14T08:07:38.346Z,10.7
2022-12-14T08:08:25.763Z,10.7
2022-12-14T08:09:13.117Z,10.7
2022-12-14T08:10:00.473Z,10.7
2022-12-14T08:10:47.911Z,10.7
2022-12-14T08:11:35.236Z,10.7
2022-12-14T08:12:22.578Z,10.7
2022-12-14T08:13:09.918Z,10.7
2022-12-14T08:13:57.230Z,10.7
2022-12-14T08:14:44.526Z,10.7
2022-12-14T08:15:31.961Z,10.7
2022-12-14T08:16:19.318Z,10.7
2022-12-14T08:17:06.649Z,10.7
2022-12-14T08:17:54.074Z,10.7
2022-12-14T08:18:41.407Z,10.7
2022-12-14T08:19:28.715Z,10.7
2022-12-14T08:20:16.157Z,10.7
2022-12-14T08:21:03.558Z,10.7
2022-12-14T08:21:50.864Z,12.1
2022-12-14T08:22:38.313Z,12.1
2022-12-14T08:23:25.607Z,12.1
2022-12-14T08:24:12.927Z,12.1
2022-12-14T08:25:00.378Z,12.1
2022-12-14T08:25:47.674Z,12.1
2022-12-14T08:26:35.921Z,12.1
2022-12-14T08:27:23.643Z,12.1
2022-12-14T08:28:11.015Z,12.1
2022-12-14T08:28:58.367Z,12.1
2022-12-14T08:29:45.666Z,12.1
2022-12-14T08:30:33.130Z,12.1
2022-12-14T08:31:20.518Z,12.1
2022-12-14T08:32:07.871Z,12.1
2022-12-14T08:32:55.317Z,12.1
2022-12-14T08:33:42.640Z,12.1
2022-12-14T08:34:29.941Z,12.1
2022-12-14T08:35:17.395Z,12.1
2022-12-14T08:36:04.722Z,12.1
2022-12-14T08:36:52.081Z,12.1
2022-12-14T08:37:44.159Z,12.1
2022-12-14T08:38:34.601Z,12.1
2022-12-14T08:39:22.025Z,12.1
2022-12-14T08:40:09.364Z,12.1
2022-12-14T08:40:56.855Z,12.1
2022-12-14T08:41:44.200Z,12.1
2022-12-14T08:42:31.531Z,12.1
2022-12-14T08:43:23.376Z,12.1
2022-12-14T08:44:12.374Z,12.1
2022-12-14T08:44:59.744Z,12.1
2022-12-14T08:45:47.042Z,12.1
2022-12-14T08:46:34.433Z,12.1
2022-12-14T08:47:21.774Z,12.1
2022-12-14T08:48:09.069Z,12.1
2022-12-14T08:48:56.390Z,12.1
2022-12-14T08:49:43.851Z,12.1
2022-12-14T08:50:31.145Z,12.1
2022-12-14T08:51:18.453Z,12.1
2022-12-14T08:52:05.895Z,12.1
2022-12-14T08:52:53.219Z,12.1
2022-12-14T08:53:40.514Z,12.1
2022-12-14T08:54:27.933Z,12.1
2022-12-14T08:55:15.230Z,12.1
2022-12-14T08:56:02.572Z,12.1
2022-12-14T08:56:50.007Z,12.1
2022-12-14T08:57:37.516Z,12.1
2022-12-14T08:58:24.973Z,12.1
2022-12-14T08:59:24.723Z,12.1
2022-12-14T09:00:09.621Z,12.1
2022-12-14T09:00:57.132Z,12.1
2022-12-14T09:01:44.605Z,12.1
2022-12-14T09:02:32.215Z,12.1
2022-12-14T09:03:19.642Z,12.1
2022-12-14T09:04:07.010Z,12.1
2022-12-14T09:04:54.315Z,12.1
2022-12-14T09:05:41.798Z,12.1
2022-12-14T09:06:29.144Z,12.1
2022-12-14T09:07:16.441Z,12.1
2022-12-14T09:08:03.881Z,12.1
2022-12-14T09:08:51.142Z,12.1
2022-12-14T09:09:38.434Z,12.1
2022-12-14T09:10:25.862Z,12.1
2022-12-14T09:11:13.161Z,12.1
2022-12-14T09:12:00.504Z,12.1
2022-12-14T09:12:47.934Z,12.1
2022-12-14T09:13:35.229Z,12.1
2022-12-14T09:14:22.575Z,12.1
2022-12-14T09:15:09.983Z,12.1
2022-12-14T09:15:57.383Z,12.1
2022-12-14T09:16:44.807Z,12.1
2022-12-14T09:17:32.173Z,12.1
2022-12-14T09:18:19.514Z,12.1
2022-12-14T09:19:06.812Z,12.1
2022-12-14T09:19:54.281Z,12.1
2022-12-14T09:20:41.667Z,12.1
2022-12-14T09:21:28.997Z,12.1
2022-12-14T09:22:18.709Z,12.9
2022-12-14T09:23:06.300Z,12.9
2022-12-14T09:23:59.000Z,12.9
2022-12-14T09:24:47.010Z,12.9
2022-12-14T09:25:34.454Z,12.9
2022-12-14T09:26:21.791Z,12.9
2022-12-14T09:27:09.131Z,12.9
2022-12-14T09:27:56.582Z,12.9
2022-12-14T09:28:43.921Z,12.9
2022-12-14T09:29:31.256Z,12.9
2022-12-14T09:30:24.819Z,12.9
2022-12-14T09:31:13.915Z,12.9
2022-12-14T09:32:01.364Z,12.9
2022-12-14T09:32:50.565Z,12.9
2022-12-14T09:33:38.232Z,12.9
2022-12-14T09:34:25.697Z,12.9
2022-12-14T09:35:13.043Z,12.9
2022-12-14T09:36:00.368Z,12.9
2022-12-14T09:36:47.795Z,12.9
2022-12-14T09:37:35.106Z,12.9
2022-12-14T09:38:22.480Z,12.9
2022-12-14T09:39:09.873Z,12.9
2022-12-14T09:39:57.218Z,12.9
2022-12-14T09:40:44.552Z,12.9
2022-12-14T09:41:34.230Z,12.9
2022-12-14T09:42:21.584Z,12.9
2022-12-14T09:43:08.906Z,12.9
2022-12-14T09:43:56.249Z,12.9
2022-12-14T09:44:43.714Z,12.9
2022-12-14T09:45:31.116Z,12.9
2022-12-14T09:46:18.544Z,12.9
2022-12-14T09:47:05.905Z,12.9
2022-12-14T09:47:53.245Z,12.9
2022-12-14T09:48:40.534Z,12.9
2022-12-14T09:49:27.991Z,12.9
2022-12-14T09:50:15.335Z,12.9
2022-12-14T09:51:02.720Z,12.9
2022-12-14T09:51:50.045Z,12.9
2022-12-14T09:52:37.413Z,12.9
2022-12-14T09:53:24.742Z,12.9
2022-12-14T09:54:12.155Z,12.9
2022-12-14T09:54:59.492Z,12.9
2022-12-14T09:55:46.818Z,12.9
2022-12-14T09:56:34.193Z,12.9
2022-12-14T09:57:21.523Z,12.9
2022-12-14T09:58:08.809Z,12.9
2022-12-14T09:58:56.268Z,12.9
2022-12-14T09:59:43.577Z,12.9
2022-12-14T10:00:30.974Z,12.9
2022-12-14T10:01:18.381Z,12.9
2022-12-14T10:03:06.889Z,12.9
2022-12-14T10:03:54.750Z,12.9
2022-12-14T10:04:47.596Z,12.9
2022-12-14T10:05:35.290Z,12.9
2022-12-14T10:06:22.689Z,12.9
2022-12-14T10:07:09.995Z,12.9
2022-12-14T10:07:57.327Z,12.9
2022-12-14T10:08:48.197Z,12.9
2022-12-14T10:09:38.358Z,12.9
2022-12-14T10:10:25.837Z,12.9
2022-12-14T10:11:13.159Z,12.9
2022-12-14T10:12:00.457Z,12.9
2022-12-14T10:12:47.923Z,12.9
2022-12-14T10:13:35.277Z,12.9
2022-12-14T10:14:22.604Z,12.9
2022-12-14T10:15:09.998Z,12.9
2022-12-14T10:15:57.370Z,12.9
2022-12-14T10:16:49.988Z,12.9
2022-12-14T10:17:38.995Z,12.9
2022-12-14T10:18:59.173Z,12.9
2022-12-14T10:19:23.722Z,12.9
2022-12-14T10:20:11.163Z,12.9
2022-12-14T10:20:58.443Z,12.9
2022-12-14T10:21:45.746Z,14.9
2022-12-14T10:22:33.188Z,14.9
2022-12-14T10:23:23.088Z,14.9
2022-12-14T10:24:10.635Z,14.9
2022-12-14T10:24:58.077Z,14.9
2022-12-14T10:25:45.371Z,14.9
2022-12-14T10:26:32.720Z,14.9
2022-12-14T10:27:20.106Z,14.9
2022-12-14T10:28:11.744Z,14.9
2022-12-14T10:29:01.719Z,14.9
2022-12-14T10:29:49.224Z,14.9
2022-12-14T10:30:36.530Z,14.9
2022-12-14T10:31:23.845Z,14.9
2022-12-14T10:32:11.234Z,14.9
2022-12-14T10:32:58.612Z,14.9
2022-12-14T10:33:45.956Z,14.9
2022-12-14T10:34:33.347Z,14.9
2022-12-14T10:35:20.682Z,14.9
2022-12-14T10:36:07.978Z,14.9
2022-12-14T10:36:55.289Z,14.9
2022-12-14T10:37:42.724Z,14.9
2022-12-14T10:38:30.417Z,14.9
2022-12-14T10:39:18.064Z,14.9
2022-12-14T10:40:12.474Z,14.9
2022-12-14T10:41:02.782Z,14.9
2022-12-14T10:41:50.252Z,14.9
2022-12-14T10:42:37.631Z,14.9
2022-12-14T10:43:24.997Z,14.9
2022-12-14T10:44:12.461Z,14.9
2022-12-14T10:45:23.347Z,14.9
2022-12-14T10:45:57.133Z,14.9
2022-12-14T10:46:44.616Z,14.9
2022-12-14T10:47:31.950Z,14.9
2022-12-14T10:48:19.241Z,14.9
2022-12-14T10:49:06.665Z,14.9
2022-12-14T10:49:53.999Z,14.9
2022-12-14T10:50:41.298Z,14.9
2022-12-14T10:51:28.732Z,14.9
2022-12-14T10:52:16.019Z,14.9
2022-12-14T10:53:03.356Z,14.9
2022-12-14T10:53:50.776Z,14.9
2022-12-14T10:54:38.112Z,14.9
2022-12-14T10:55:25.448Z,14.9
2022-12-14T10:56:12.951Z,14.9
2022-12-14T10:57:00.422Z,14.9
2022-12-14T10:57:47.898Z,14.9
2022-12-14T10:58:35.293Z,14.9
2022-12-14T10:59:22.764Z,14.9
2022-12-14T11:00:10.509Z,14.9
2022-12-14T11:00:57.886Z,14.9
2022-12-14T11:01:45.611Z,14.9
2022-12-14T11:02:33.046Z,14.9
2022-12-14T11:03:20.496Z,14.9
2022-12-14T11:04:07.927Z,14.9
2022-12-14T11:04:55.272Z,14.9
2022-12-14T11:05:42.628Z,14.9
2022-12-14T11:06:30.001Z,14.9
2022-12-14T11:07:17.343Z,14.9
2022-12-14T11:08:04.641Z,14.9
2022-12-14T11:08:52.210Z,14.9
2022-12-14T11:09:40.364Z,14.9
2022-12-14T11:10:27.666Z,14.9
2022-12-14T11:11:18.942Z,14.9
2022-12-14T11:12:06.930Z,14.9
2022-12-14T11:12:54.302Z,14.9
2022-12-14T11:13:41.632Z,14.9
2022-12-14T11:21:13.984Z,14.9
2022-12-14T11:28:50.368Z,14.0
2022-12-14T11:36:22.955Z,14.0
2022-12-14T11:42:02.549Z,14.0
2022-12-14T11:42:49.861Z,14.0
2022-12-14T11:43:37.198Z,14.0
2022-12-14T11:44:24.523Z,14.0
2022-12-14T11:45:11.819Z,14.0
2022-12-14T11:45:59.184Z,14.0
2022-12-14T11:46:46.603Z,14.0
2022-12-14T11:47:33.994Z,14.0
2022-12-14T11:48:21.519Z,14.0
2022-12-14T11:49:08.888Z,14.0
2022-12-14T11:49:56.183Z,14.0
2022-12-14T11:50:43.507Z,14.0
2022-12-14T11:51:30.805Z,14.0
2022-12-14T11:52:18.173Z,14.0
2022-12-14T11:53:10.954Z,14.0
2022-12-14T11:53:58.916Z,14.0
2022-12-14T11:54:49.966Z,14.0
2022-12-14T11:55:37.658Z,14.0
2022-12-14T11:56:24.947Z,14.0
2022-12-14T11:57:12.284Z,14.0
2022-12-14T11:57:59.620Z,14.0
2022-12-14T11:58:46.994Z,14.0
2022-12-14T11:59:34.310Z,14.0
2022-12-14T12:00:21.642Z,14.0
2022-12-14T12:01:09.073Z,14.0
2022-12-14T12:01:56.533Z,14.0
2022-12-14T12:02:43.960Z,14.0
2022-12-14T12:03:31.434Z,14.0
2022-12-14T12:04:18.772Z,14.0
2022-12-14T12:05:06.107Z,14.0
2022-12-14T12:05:53.506Z,14.0
2022-12-14T12:06:40.802Z,14.0
2022-12-14T12:07:28.130Z,14.0
2022-12-14T12:08:15.548Z,14.0
2022-12-14T12:09:02.853Z,14.0
2022-12-14T12:09:50.145Z,14.0
2022-12-14T12:10:37.594Z,14.0
2022-12-14T12:11:24.929Z,14.0
2022-12-14T12:12:12.234Z,14.0
2022-12-14T12:12:59.670Z,14.0
2022-12-14T12:13:47.591Z,14.0
2022-12-14T12:14:34.996Z,14.0
2022-12-14T12:15:22.365Z,14.0
2022-12-14T12:16:09.765Z,14.0
2022-12-14T12:16:57.149Z,14.0
2022-12-14T12:17:44.511Z,14.0
2022-12-14T12:18:32.120Z,14.0
2022-12-14T12:19:19.738Z,14.0
2022-12-14T12:20:07.153Z,14.0
2022-12-14T12:20:54.492Z,14.0
2022-12-14T12:21:41.822Z,13.1
2022-12-14T12:22:29.228Z,13.1
2022-12-14T12:23:16.567Z,13.1
2022-12-14T12:24:03.951Z,13.1
2022-12-14T12:25:16.752Z,13.1
2022-12-14T12:25:48.657Z,13.1
2022-12-14T12:26:36.165Z,13.1
2022-12-14T12:27:23.510Z,13.1
2022-12-14T12:28:10.912Z,13.1
2022-12-14T12:28:58.268Z,13.1
2022-12-14T12:29:45.615Z,13.1
2022-12-14T12:30:32.930Z,13.1
2022-12-14T12:31:20.443Z,13.1
2022-12-14T12:32:07.785Z,13.1
2022-12-14T12:32:55.093Z,13.1
2022-12-14T12:33:42.609Z,13.1
2022-12-14T12:34:30.085Z,13.1
2022-12-14T12:35:17.438Z,13.1
2022-12-14T12:36:04.828Z,13.1
2022-12-14T12:37:24.789Z,13.1
2022-12-14T12:37:49.974Z,13.1
2022-12-14T12:38:37.330Z,13.1
2022-12-14T12:39:24.905Z,13.1
2022-12-14T12:40:12.260Z,13.1
2022-12-14T12:40:59.566Z,13.1
2022-12-14T12:41:47.045Z,13.1
2022-12-14T12:42:34.333Z,13.1
2022-12-14T12:43:21.655Z,13.1
2022-12-14T12:44:09.052Z,13.1
2022-12-14T12:44:56.329Z,13.1
2022-12-14T12:45:43.686Z,13.1
2022-12-14T12:46:31.317Z,13.1
2022-12-14T12:47:32.335Z,13.1
2022-12-14T12:48:16.248Z,13.1
2022-12-14T12:49:03.695Z,13.1
2022-12-14T12:49:51.128Z,13.1
2022-12-14T12:50:38.417Z,13.1
2022-12-14T12:51:25.850Z,13.1
2022-12-14T12:52:13.178Z,13.1
2022-12-14T12:53:03.489Z,13.1
2022-12-14T12:53:51.196Z,13.1
2022-12-14T12:54:38.559Z,13.1
2022-12-14T12:55:25.915Z,13.1
2022-12-14T12:56:13.218Z,13.1
2022-12-14T12:57:00.625Z,13.1
2022-12-14T12:57:47.926Z,13.1
2022-12-14T12:58:35.246Z,13.1
2022-12-14T12:59:22.649Z,13.1
2022-12-14T13:00:10.017Z,13.1
2022-12-14T13:00:57.429Z,13.1
2022-12-14T13:01:44.928Z,13.1
2022-12-14T13:02:32.469Z,13.1
2022-12-14T13:03:20.097Z,13.1
2022-12-14T13:04:07.618Z,13.1
2022-12-14T13:04:54.919Z,13.1
2022-12-14T13:05:47.277Z,13.1
2022-12-14T13:06:35.339Z,13.1
2022-12-14T13:07:22.734Z,13.1
2022-12-14T13:08:10.087Z,13.1
2022-12-14T13:08:57.448Z,13.1
2022-12-14T13:09:44.884Z,13.1
2022-12-14T13:10:32.219Z,13.1
2022-12-14T13:11:27.527Z,13.1
2022-12-14T13:12:15.501Z,13.1
2022-12-14T13:13:02.825Z,13.1
2022-12-14T13:13:50.164Z,13.1
2022-12-14T13:14:37.523Z,13.1
2022-12-14T13:15:24.911Z,13.1
2022-12-14T13:16:12.307Z,13.1
2022-12-14T13:16:59.640Z,13.1
2022-12-14T13:17:47.068Z,13.1
2022-12-14T13:19:50.411Z,13.1
2022-12-14T13:20:31.413Z,13.1
2022-12-14T13:21:18.815Z,13.1
2022-12-14T13:22:08.822Z,12.8
2022-12-14T13:23:05.738Z,12.8
2022-12-14T13:23:55.683Z,12.8
2022-12-14T13:24:43.018Z,12.8
2022-12-14T13:25:30.315Z,12.8
2022-12-14T13:26:48.614Z,12.8
2022-12-14T13:27:17.668Z,12.8
2022-12-14T13:28:05.417Z,12.8
2022-12-14T13:28:52.847Z,12.8
2022-12-14T13:29:40.187Z,12.8
2022-12-14T13:30:27.502Z,12.8
2022-12-14T13:31:15.039Z,12.8
2022-12-14T13:32:02.430Z,12.8
2022-12-14T13:32:49.787Z,12.8
2022-12-14T13:33:37.247Z,12.8
2022-12-14T13:34:24.570Z,12.8
2022-12-14T13:35:11.942Z,12.8
2022-12-14T13:35:59.371Z,12.8
2022-12-14T13:36:46.723Z,12.8
2022-12-14T13:37:34.113Z,12.8
2022-12-14T13:38:21.713Z,12.8
2022-12-14T13:39:09.049Z,12.8
2022-12-14T13:39:56.380Z,12.8
2022-12-14T13:40:43.815Z,12.8
2022-12-14T13:41:31.153Z,12.8
2022-12-14T13:42:18.478Z,12.8
2022-12-14T13:43:05.860Z,12.8
2022-12-14T13:43:53.199Z,12.8
2022-12-14T13:44:44.102Z,12.8
2022-12-14T13:45:31.663Z,12.8
2022-12-14T13:46:19.144Z,12.8
2022-12-14T13:47:06.465Z,12.8
2022-12-14T13:47:53.937Z,12.8
2022-12-14T13:48:42.053Z,12.8
2022-12-14T13:49:29.416Z,12.8
2022-12-14T13:51:14.067Z,12.8
2022-12-14T13:52:01.731Z,12.8
2022-12-14T13:52:49.195Z,12.8
2022-12-14T13:53:36.507Z,12.8
2022-12-14T13:54:23.850Z,12.8
2022-12-14T13:55:11.162Z,12.8
2022-12-14T13:55:58.525Z,12.8
2022-12-14T13:56:45.855Z,12.8
2022-12-14T13:57:33.256Z,12.8
2022-12-14T13:58:20.610Z,12.8
2022-12-14T13:59:08.158Z,12.8
2022-12-14T13:59:55.510Z,12.8
2022-12-14T14:00:42.861Z,12.8
2022-12-14T14:01:30.237Z,12.8
2022-12-14T14:02:19.977Z,12.8
2022-12-14T14:03:07.618Z,12.8
2022-12-14T14:03:55.158Z,12.8
2022-12-14T14:04:42.801Z,12.8
2022-12-14T14:05:30.114Z,12.8
2022-12-14T14:06:17.459Z,12.8
2022-12-14T14:07:04.867Z,12.8
2022-12-14T14:07:52.255Z,12.8
2022-12-14T14:08:42.088Z,12.8
2022-12-14T14:09:30.033Z,12.8
2022-12-14T14:10:17.457Z,12.8
2022-12-14T14:11:35.808Z,12.8
2022-12-14T14:12:02.644Z,12.8
2022-12-14T14:12:49.995Z,12.8
2022-12-14T14:13:37.395Z,12.8
2022-12-14T14:14:24.739Z,12.8
2022-12-14T14:15:12.051Z,12.8
2022-12-14T14:16:56.719Z,12.8
2022-12-14T14:17:44.087Z,12.8
2022-12-14T14:18:32.107Z,12.8
2022-12-14T14:19:19.750Z,12.8
2022-12-14T14:20:07.189Z,12.8
2022-12-14T14:20:58.877Z,12.8
2022-12-14T14:22:14.310Z,12.4
2022-12-14T14:22:43.828Z,12.4
2022-12-14T14:23:31.239Z,12.4
2022-12-14T14:24:18.617Z,12.4
2022-12-14T14:25:13.004Z,12.4
2022-12-14T14:26:00.378Z,12.4
2022-12-14T14:26:50.760Z,12.4
2022-12-14T14:27:38.156Z,12.4
2022-12-14T14:28:25.606Z,12.4
2022-12-14T14:29:12.912Z,12.4
2022-12-14T14:30:00.246Z,12.4
2022-12-14T14:30:47.573Z,12.4
2022-12-14T14:31:34.962Z,12.4
2022-12-14T14:32:22.273Z,12.4
2022-12-14T14:33:43.557Z,12.4
2022-12-14T14:34:07.022Z,12.4
2022-12-14T14:34:54.453Z,12.4
2022-12-14T14:35:42.481Z,12.4
2022-12-14T14:36:29.766Z,12.4
2022-12-14T14:37:17.073Z,12.4
2022-12-14T14:38:04.499Z,12.4
2022-12-14T14:38:51.790Z,12.4
2022-12-14T14:39:56.662Z,12.4
2022-12-14T14:41:15.216Z,12.4
2022-12-14T14:41:33.807Z,12.4
2022-12-14T14:42:21.165Z,12.4
2022-12-14T14:43:08.513Z,12.4
2022-12-14T14:43:55.840Z,12.4
2022-12-14T14:44:43.265Z,12.4
2022-12-14T14:45:30.614Z,12.4
2022-12-14T14:46:22.724Z,12.4
2022-12-14T14:47:10.671Z,12.4
2022-12-14T14:47:58.083Z,12.4
2022-12-14T14:48:45.429Z,12.4
2022-12-14T14:49:32.766Z,12.4
2022-12-14T14:50:20.151Z,12.4
2022-12-14T14:51:07.491Z,12.4
2022-12-14T14:51:54.789Z,12.4
2022-12-14T14:52:42.284Z,12.4
2022-12-14T14:53:29.882Z,12.4
2022-12-14T14:54:37.550Z,12.4
2022-12-14T14:55:50.932Z,12.4
2022-12-14T14:56:11.742Z,12.4
2022-12-14T14:56:59.143Z,12.4
2022-12-14T14:57:46.477Z,12.4
2022-12-14T14:58:34.365Z,12.4
2022-12-14T14:59:21.981Z,12.4
2022-12-14T15:00:09.363Z,12.4
2022-12-14T15:00:56.714Z,12.4
2022-12-14T15:01:44.169Z,12.4
2022-12-14T15:02:31.634Z,12.4
2022-12-14T15:03:19.106Z,12.4
2022-12-14T15:04:06.599Z,12.4
2022-12-14T15:04:56.874Z,12.4
2022-12-14T15:05:44.659Z,12.4
2022-12-14T15:06:32.048Z,12.4
2022-12-14T15:07:19.581Z,12.4
2022-12-14T15:08:06.897Z,12.4
2022-12-14T15:08:54.310Z,12.4
2022-12-14T15:09:41.684Z,12.4
2022-12-14T15:10:29.018Z,12.4
2022-12-14T15:11:16.470Z,12.4
2022-12-14T15:12:03.992Z,12.4
2022-12-14T15:12:51.300Z,12.4
2022-12-14T15:13:38.704Z,12.4
2022-12-14T15:14:26.028Z,12.4
2022-12-14T15:15:13.393Z,12.4
2022-12-14T15:16:00.858Z,12.4
2022-12-14T15:16:48.287Z,12.4
2022-12-14T15:17:35.630Z,12.4
2022-12-14T15:18:23.045Z,12.4
2022-12-14T15:19:10.360Z,12.4
2022-12-14T15:19:57.711Z,12.4
2022-12-14T15:20:45.075Z,12.4
2022-12-14T15:21:32.697Z,15.7
2022-12-14T15:22:20.066Z,15.7
2022-12-14T15:23:07.606Z,15.7
2022-12-14T15:23:54.927Z,15.7
2022-12-14T15:24:42.290Z,15.7
2022-12-14T15:25:29.697Z,15.7
2022-12-14T15:26:17.590Z,15.7
2022-12-14T15:27:04.947Z,15.7
2022-12-14T15:27:52.411Z,15.7
2022-12-14T15:28:39.714Z,15.7
2022-12-14T15:29:27.190Z,15.7
2022-12-14T15:30:14.482Z,15.7
2022-12-14T15:31:01.798Z,15.7
2022-12-14T15:31:50.608Z,15.7
2022-12-14T15:32:47.229Z,15.7
2022-12-14T15:33:35.371Z,15.7
2022-12-14T15:34:22.708Z,15.7
2022-12-14T15:35:10.081Z,15.7
2022-12-14T15:35:57.446Z,15.7
2022-12-14T15:36:44.812Z,15.7
2022-12-14T15:37:32.104Z,15.7
2022-12-14T15:38:19.389Z,15.7
2022-12-14T15:39:06.814Z,15.7
2022-12-14T15:39:54.141Z,15.7
2022-12-14T15:40:41.482Z,15.7
2022-12-14T15:41:28.870Z,15.7
2022-12-14T15:42:16.201Z,15.7
2022-12-14T15:43:03.580Z,15.7
2022-12-14T15:43:53.732Z,15.7
2022-12-14T15:44:43.877Z,15.7
2022-12-14T15:45:31.353Z,15.7
2022-12-14T15:46:18.772Z,15.7
2022-12-14T15:47:06.142Z,15.7
2022-12-14T15:47:53.611Z,15.7
2022-12-14T15:48:40.970Z,15.7
2022-12-14T15:49:28.275Z,15.7
2022-12-14T15:50:15.723Z,15.7
2022-12-14T15:51:03.034Z,15.7
2022-12-14T15:51:50.336Z,15.7
2022-12-14T15:52:37.832Z,15.7